Virtuous Striker — C6XX6 — position and weather

sailwx.info

Track history (hours):
 
Tides and Currents Weather Stations Pressure Air Temp Water Temp Dewpoint Dewpoint Depression Visibility Wind Speed Wind Dir Waves Ship Positions

Virtuous Striker

Last reported at 2016-Jul-07 12:05 UTC. Time now 2016-Jul-24 16:37 UTC.
Position S 24°21' W 045°37'.
Warning: this ship's position is 17 days out of date.

Length 190 m; draft 7 m.

Type: Cargo ship. MMSI: 311025100.

Date/timePositionNaut miles runAvg speedWind from/ knotsBaromVisibWave heightAir tempDewpointWater temp
2016-Jul-07 12:05S 24°21' W 045°37'712.7
2016-Jul-07 11:33S 24°22' W 045°45'1312.9
2016-Jul-07 10:32S 24°15' W 045°57'1313.0
2016-Jul-07 09:33S 24°09' W 046°09'1212.1
2016-Jul-07 08:33S 24°02' W 046°20'5 0.2
2016-Jul-05 23:19S 23°57' W 046°19'3 3.8
2016-Jul-05 22:33S 23°60' W 046°19'6 6.2
2016-Jul-05 21:33S 24°05' W 046°22'0 0.1
2016-Jul-05 20:31S 24°05' W 046°22'0 0.0
2016-Jul-05 19:31S 24°05' W 046°22'0 0.0
2016-Jul-05 18:31S 24°05' W 046°22'0 0.0
2016-Jul-05 17:28S 24°05' W 046°22'0 0.0
2016-Jul-05 16:31S 24°05' W 046°22'0 0.0
2016-Jul-05 15:31S 24°05' W 046°22'0 0.0
2016-Jul-05 14:22S 24°05' W 046°22'0 0.1
2016-Jul-05 13:28S 24°05' W 046°22'0 0.0
2016-Jul-05 12:28S 24°05' W 046°22'0 0.0
2016-Jul-05 11:28S 24°05' W 046°22'0 0.0
2016-Jul-05 10:31S 24°05' W 046°22'0 0.0
2016-Jul-05 09:31S 24°05' W 046°22'0 0.0
2016-Jul-05 08:31S 24°05' W 046°22'0 0.0
2016-Jul-05 07:31S 24°05' W 046°22'0 0.0
2016-Jul-05 06:28S 24°05' W 046°22'0 0.0
2016-Jul-05 04:31S 24°05' W 046°22'0 0.0
2016-Jul-05 03:28S 24°05' W 046°22'0 0.0
2016-Jul-05 02:31S 24°05' W 046°22'0 0.0
2016-Jul-05 01:31S 24°05' W 046°22'0 0.1
2016-Jul-05 00:31S 24°05' W 046°22'3 3.2
2016-Jul-04 23:33S 24°03' W 046°20'4 3.7
2016-Jul-04 22:33S 24°06' W 046°22'0 0.1
2016-Jul-04 21:27S 24°06' W 046°22'0 0.0
2016-Jul-04 20:33S 24°06' W 046°22'0 0.0
2016-Jul-04 19:33S 24°06' W 046°22'0 0.0
2016-Jul-04 18:33S 24°06' W 046°22'0 0.0
2016-Jul-04 17:33S 24°06' W 046°22'0 0.0
2016-Jul-04 16:30S 24°06' W 046°22'0 0.0
2016-Jul-04 15:27S 24°06' W 046°22'0 0.1
2016-Jul-04 14:33S 24°06' W 046°22'0 0.1
2016-Jul-04 13:27S 24°06' W 046°22'0 0.1
2016-Jul-04 12:33S 24°06' W 046°22'0 0.1
2016-Jul-04 11:33S 24°06' W 046°22'0 0.0
2016-Jul-04 10:30S 24°06' W 046°22'0 0.0
2016-Jul-04 09:30S 24°06' W 046°22'0 0.0
2016-Jul-04 08:30S 24°06' W 046°22'0 0.0
2016-Jul-04 07:30S 24°06' W 046°22'0 0.0
2016-Jul-04 06:33S 24°06' W 046°22'0 0.0
2016-Jul-04 04:33S 24°06' W 046°22'0 0.0
2016-Jul-04 03:27S 24°06' W 046°22'0 0.0
2016-Jul-04 02:33S 24°06' W 046°22'0 0.0
2016-Jul-04 01:30S 24°06' W 046°22'0 0.1
2016-Jul-04 00:33S 24°06' W 046°22'0 0.0
2016-Jul-03 23:33S 24°06' W 046°22'0 0.0
2016-Jul-03 22:33S 24°06' W 046°22'0 0.0
2016-Jul-03 21:30S 24°06' W 046°22'0 0.0
2016-Jul-03 20:33S 24°06' W 046°22'0 0.0
2016-Jul-03 19:33S 24°06' W 046°22'0 0.0
2016-Jul-03 18:15S 24°06' W 046°22'0 0.0
2016-Jul-03 17:33S 24°06' W 046°22'0 0.0
2016-Jul-03 16:27S 24°06' W 046°22'0 0.0
2016-Jul-03 15:33S 24°06' W 046°22'0 0.0
2016-Jul-03 14:33S 24°06' W 046°22'0 0.0
2016-Jul-03 13:33S 24°06' W 046°22'0 0.0
2016-Jul-03 12:33S 24°06' W 046°22'0 0.0
2016-Jul-03 11:30S 24°06' W 046°22'0 0.0
2016-Jul-03 10:33S 24°06' W 046°22'0 0.0
2016-Jul-03 09:30S 24°06' W 046°22'0 0.0
2016-Jul-03 08:30S 24°06' W 046°22'0 0.0
2016-Jul-03 07:33S 24°06' W 046°22'0 0.0
2016-Jul-03 06:30S 24°06' W 046°22'0 0.0
2016-Jul-03 05:33S 24°06' W 046°22'0 0.0
2016-Jul-03 04:33S 24°06' W 046°22'0 0.0
2016-Jul-03 03:33S 24°06' W 046°22'0 0.0
2016-Jul-03 02:33S 24°06' W 046°22'0 0.0
2016-Jul-03 01:33S 24°06' W 046°22'0 0.0
2016-Jul-03 00:33S 24°06' W 046°22'0 0.0
2016-Jul-02 23:30S 24°06' W 046°22'0 0.0
2016-Jul-02 22:27S 24°06' W 046°22'0 0.0
2016-Jul-02 21:33S 24°06' W 046°22'0 0.0
2016-Jul-02 20:33S 24°06' W 046°22'0 0.0
2016-Jul-02 19:27S 24°06' W 046°22'0 0.0
2016-Jul-02 18:33S 24°06' W 046°22'0 0.0
2016-Jul-02 17:30S 24°06' W 046°22'0 0.0
2016-Jul-02 16:30S 24°06' W 046°22'0 0.0
2016-Jul-02 15:33S 24°06' W 046°22'0 0.0
2016-Jul-02 14:27S 24°06' W 046°22'0 0.0
2016-Jul-02 13:33S 24°06' W 046°22'0 0.0
2016-Jul-02 12:27S 24°06' W 046°22'0 0.0
2016-Jul-02 11:33S 24°06' W 046°22'0 0.0
2016-Jul-02 10:33S 24°06' W 046°22'0 0.0
2016-Jul-02 09:33S 24°06' W 046°22'0 0.0
2016-Jul-02 08:27S 24°06' W 046°22'0 0.0
2016-Jul-02 07:33S 24°06' W 046°22'0 0.0
2016-Jul-02 06:33S 24°06' W 046°22'0 0.0
2016-Jul-02 04:30S 24°06' W 046°22'0 0.0
2016-Jul-02 03:33S 24°06' W 046°22'0 0.0
2016-Jul-02 02:33S 24°06' W 046°22'0 0.0
2016-Jul-02 01:33S 24°06' W 046°22'0 0.1
2016-Jul-02 00:33S 24°06' W 046°22'0 0.0
2016-Jul-01 23:33S 24°06' W 046°22'0 0.0
2016-Jul-01 22:18S 24°06' W 046°22'0 0.0
2016-Jul-01 21:33S 24°06' W 046°22'0 0.0
2016-Jul-01 20:33S 24°06' W 046°22'0 0.0
2016-Jul-01 19:33S 24°06' W 046°22'0 0.0
2016-Jul-01 18:33S 24°06' W 046°22'0 0.0
2016-Jul-01 17:30S 24°06' W 046°22'0 0.0
2016-Jul-01 16:33S 24°06' W 046°22'0 0.0
2016-Jul-01 15:33S 24°06' W 046°22'0 0.0
2016-Jul-01 14:27S 24°06' W 046°22'0 0.0
2016-Jul-01 13:33S 24°06' W 046°22'0 0.0
2016-Jul-01 12:33S 24°06' W 046°22'0 0.0
2016-Jul-01 11:27S 24°06' W 046°22'0 0.0
2016-Jul-01 10:33S 24°06' W 046°22'0 0.0
2016-Jul-01 09:33S 24°06' W 046°22'0 0.0
2016-Jul-01 08:30S 24°06' W 046°22'0 0.0
2016-Jul-01 07:33S 24°06' W 046°22'0 0.0
2016-Jul-01 06:33S 24°06' W 046°22'0 0.0
2016-Jul-01 05:30S 24°06' W 046°22'0 0.0
2016-Jul-01 04:33S 24°06' W 046°22'0 0.0
2016-Jul-01 03:30S 24°06' W 046°22'0 0.0
2016-Jul-01 02:33S 24°06' W 046°22'0 0.0
2016-Jul-01 01:33S 24°06' W 046°22'0 0.0
2016-Jul-01 00:33S 24°06' W 046°22'0 0.0
2016-Jun-30 23:33S 24°06' W 046°22'0 0.0
2016-Jun-30 22:33S 24°06' W 046°22'0 0.0
2016-Jun-30 21:33S 24°06' W 046°22'0 0.0
2016-Jun-30 20:33S 24°06' W 046°22'0 0.0
2016-Jun-30 19:33S 24°06' W 046°22'0 0.0
2016-Jun-30 18:33S 24°06' W 046°22'0 0.0
2016-Jun-30 17:30S 24°06' W 046°22'0 0.0
2016-Jun-30 16:30S 24°06' W 046°22'0 0.0
2016-Jun-30 15:33S 24°06' W 046°22'0 0.0
2016-Jun-30 14:33S 24°06' W 046°22'0 0.0
2016-Jun-30 13:30S 24°06' W 046°22'0 0.0
2016-Jun-30 12:33S 24°06' W 046°22'0 0.0
2016-Jun-30 11:33S 24°06' W 046°22'0 0.0
2016-Jun-30 10:33S 24°06' W 046°22'0 0.0
2016-Jun-30 09:24S 24°06' W 046°22'0 0.1
2016-Jun-30 08:33S 24°06' W 046°22'0 0.0
2016-Jun-30 07:27S 24°06' W 046°22'0 0.0
2016-Jun-30 06:33S 24°06' W 046°22'0 0.0
2016-Jun-30 05:30S 24°06' W 046°22'0 0.0
2016-Jun-30 04:33S 24°06' W 046°22'0 0.0
2016-Jun-30 03:33S 24°06' W 046°22'0 0.0
2016-Jun-30 02:33S 24°06' W 046°22'0 0.0
2016-Jun-30 01:33S 24°06' W 046°22'0 0.0
2016-Jun-30 00:33S 24°06' W 046°22'0 0.0
2016-Jun-29 23:30S 24°06' W 046°22'0 0.0
2016-Jun-29 22:33S 24°06' W 046°22'0 0.0
2016-Jun-29 21:33S 24°06' W 046°22'0 0.0
2016-Jun-29 20:30S 24°06' W 046°22'0 0.0
2016-Jun-29 19:33S 24°06' W 046°22'0 0.0
2016-Jun-29 18:33S 24°06' W 046°22'0 0.0
2016-Jun-29 17:33S 24°06' W 046°22'0 0.0
2016-Jun-29 16:30S 24°06' W 046°22'0 0.0
2016-Jun-29 15:33S 24°06' W 046°22'0 0.0
2016-Jun-29 14:33S 24°06' W 046°22'0 0.0
2016-Jun-29 13:30S 24°06' W 046°22'0 0.0
2016-Jun-29 12:33S 24°06' W 046°22'0 0.0
2016-Jun-29 11:33S 24°06' W 046°22'0 0.0
2016-Jun-29 10:33S 24°06' W 046°22'0 0.0
2016-Jun-29 09:33S 24°06' W 046°22'0 0.1
2016-Jun-29 08:33S 24°06' W 046°22'0 0.0
2016-Jun-29 07:33S 24°06' W 046°22'0 0.0
2016-Jun-29 06:33S 24°06' W 046°22'0 0.0
2016-Jun-29 05:24S 24°06' W 046°22'0 0.0
2016-Jun-29 04:33S 24°06' W 046°22'0 0.0
2016-Jun-29 03:30S 24°06' W 046°22'0 0.0
2016-Jun-29 02:33S 24°06' W 046°22'0 0.0
2016-Jun-29 01:33S 24°06' W 046°22'0 0.0
2016-Jun-29 00:30S 24°06' W 046°22'0 0.0
2016-Jun-28 23:33S 24°06' W 046°22'0 0.0
2016-Jun-28 22:33S 24°06' W 046°22'0 0.0
2016-Jun-28 21:33S 24°06' W 046°22'0 0.0
2016-Jun-28 20:30S 24°06' W 046°22'0 0.0
2016-Jun-28 19:33S 24°06' W 046°22'0 0.0
2016-Jun-28 18:33S 24°06' W 046°22'0 0.0
2016-Jun-28 17:33S 24°06' W 046°22'0 0.0
2016-Jun-28 16:33S 24°06' W 046°22'0 0.0
2016-Jun-28 15:30S 24°06' W 046°22'0 0.0
2016-Jun-28 14:33S 24°06' W 046°22'0 0.0
2016-Jun-28 13:33S 24°06' W 046°22'0 0.0
2016-Jun-28 12:27S 24°06' W 046°22'0 0.0
2016-Jun-28 11:30S 24°06' W 046°22'0 0.0
2016-Jun-28 10:33S 24°06' W 046°22'0 0.0
2016-Jun-28 09:33S 24°06' W 046°22'0 0.0
2016-Jun-28 08:33S 24°06' W 046°22'0 0.0
2016-Jun-28 07:33S 24°06' W 046°22'0 0.0
2016-Jun-28 06:33S 24°06' W 046°22'0 0.0
2016-Jun-28 04:30S 24°06' W 046°22'0 0.0
2016-Jun-28 03:30S 24°06' W 046°22'0 0.0
2016-Jun-28 02:33S 24°06' W 046°22'0 0.0
2016-Jun-28 01:30S 24°06' W 046°22'0 0.0
2016-Jun-28 00:24S 24°06' W 046°22'0 0.0
2016-Jun-27 23:33S 24°06' W 046°22'0 0.0
2016-Jun-27 22:21S 24°06' W 046°22'0 0.0
2016-Jun-27 21:33S 24°06' W 046°22'0 0.0
2016-Jun-27 20:33S 24°06' W 046°22'0 0.0
2016-Jun-27 19:33S 24°06' W 046°22'0 0.0
2016-Jun-27 18:33S 24°06' W 046°22'0 0.0
2016-Jun-27 17:33S 24°06' W 046°22'0 0.0
2016-Jun-27 16:33S 24°06' W 046°22'0 0.0
2016-Jun-27 15:30S 24°06' W 046°22'0 0.0
2016-Jun-27 14:33S 24°06' W 046°22'0 0.0
2016-Jun-27 13:30S 24°06' W 046°22'0 0.0
2016-Jun-27 12:18S 24°06' W 046°22'  
Track history (hours):
 
Tides and Currents Weather Stations Pressure Air Temp Water Temp Dewpoint Dewpoint Depression Visibility Wind Speed Wind Dir Waves Ship Positions

Virtuous Striker

Last reported at 2016-Jul-07 12:05 UTC. Time now 2016-Jul-24 16:37 UTC.
Position S 24°21' W 045°37'.
Warning: this ship's position is 17 days out of date.

Length 190 m; draft 7 m.

Type: Cargo ship. MMSI: 311025100.

Date/timePositionNaut miles runAvg speedWind from/ knotsBaromVisibWave heightAir tempDewpointWater temp
2016-Jul-07 12:05S 24°21' W 045°37'712.7
2016-Jul-07 11:33S 24°22' W 045°45'1312.9
2016-Jul-07 10:32S 24°15' W 045°57'1313.0
2016-Jul-07 09:33S 24°09' W 046°09'1212.1
2016-Jul-07 08:33S 24°02' W 046°20'5 0.2
2016-Jul-05 23:19S 23°57' W 046°19'3 3.8
2016-Jul-05 22:33S 23°60' W 046°19'6 6.2
2016-Jul-05 21:33S 24°05' W 046°22'0 0.1
2016-Jul-05 20:31S 24°05' W 046°22'0 0.0
2016-Jul-05 19:31S 24°05' W 046°22'0 0.0
2016-Jul-05 18:31S 24°05' W 046°22'0 0.0
2016-Jul-05 17:28S 24°05' W 046°22'0 0.0
2016-Jul-05 16:31S 24°05' W 046°22'0 0.0
2016-Jul-05 15:31S 24°05' W 046°22'0 0.0
2016-Jul-05 14:22S 24°05' W 046°22'0 0.1
2016-Jul-05 13:28S 24°05' W 046°22'0 0.0
2016-Jul-05 12:28S 24°05' W 046°22'0 0.0
2016-Jul-05 11:28S 24°05' W 046°22'0 0.0
2016-Jul-05 10:31S 24°05' W 046°22'0 0.0
2016-Jul-05 09:31S 24°05' W 046°22'0 0.0
2016-Jul-05 08:31S 24°05' W 046°22'0 0.0
2016-Jul-05 07:31S 24°05' W 046°22'0 0.0
2016-Jul-05 06:28S 24°05' W 046°22'0 0.0
2016-Jul-05 04:31S 24°05' W 046°22'0 0.0
2016-Jul-05 03:28S 24°05' W 046°22'0 0.0
2016-Jul-05 02:31S 24°05' W 046°22'0 0.0
2016-Jul-05 01:31S 24°05' W 046°22'0 0.1
2016-Jul-05 00:31S 24°05' W 046°22'3 3.2
2016-Jul-04 23:33S 24°03' W 046°20'4 3.7
2016-Jul-04 22:33S 24°06' W 046°22'0 0.1
2016-Jul-04 21:27S 24°06' W 046°22'0 0.0
2016-Jul-04 20:33S 24°06' W 046°22'0 0.0
2016-Jul-04 19:33S 24°06' W 046°22'0 0.0
2016-Jul-04 18:33S 24°06' W 046°22'0 0.0
2016-Jul-04 17:33S 24°06' W 046°22'0 0.0
2016-Jul-04 16:30S 24°06' W 046°22'0 0.0
2016-Jul-04 15:27S 24°06' W 046°22'0 0.1
2016-Jul-04 14:33S 24°06' W 046°22'0 0.1
2016-Jul-04 13:27S 24°06' W 046°22'0 0.1
2016-Jul-04 12:33S 24°06' W 046°22'0 0.1
2016-Jul-04 11:33S 24°06' W 046°22'0 0.0
2016-Jul-04 10:30S 24°06' W 046°22'0 0.0
2016-Jul-04 09:30S 24°06' W 046°22'0 0.0
2016-Jul-04 08:30S 24°06' W 046°22'0 0.0
2016-Jul-04 07:30S 24°06' W 046°22'0 0.0
2016-Jul-04 06:33S 24°06' W 046°22'0 0.0
2016-Jul-04 04:33S 24°06' W 046°22'0 0.0
2016-Jul-04 03:27S 24°06' W 046°22'0 0.0
2016-Jul-04 02:33S 24°06' W 046°22'0 0.0
2016-Jul-04 01:30S 24°06' W 046°22'0 0.1
2016-Jul-04 00:33S 24°06' W 046°22'0 0.0
2016-Jul-03 23:33S 24°06' W 046°22'0 0.0
2016-Jul-03 22:33S 24°06' W 046°22'0 0.0
2016-Jul-03 21:30S 24°06' W 046°22'0 0.0
2016-Jul-03 20:33S 24°06' W 046°22'0 0.0
2016-Jul-03 19:33S 24°06' W 046°22'0 0.0
2016-Jul-03 18:15S 24°06' W 046°22'0 0.0
2016-Jul-03 17:33S 24°06' W 046°22'0 0.0
2016-Jul-03 16:27S 24°06' W 046°22'0 0.0
2016-Jul-03 15:33S 24°06' W 046°22'0 0.0
2016-Jul-03 14:33S 24°06' W 046°22'0 0.0
2016-Jul-03 13:33S 24°06' W 046°22'0 0.0
2016-Jul-03 12:33S 24°06' W 046°22'0 0.0
2016-Jul-03 11:30S 24°06' W 046°22'0 0.0
2016-Jul-03 10:33S 24°06' W 046°22'0 0.0
2016-Jul-03 09:30S 24°06' W 046°22'0 0.0
2016-Jul-03 08:30S 24°06' W 046°22'0 0.0
2016-Jul-03 07:33S 24°06' W 046°22'0 0.0
2016-Jul-03 06:30S 24°06' W 046°22'0 0.0
2016-Jul-03 05:33S 24°06' W 046°22'0 0.0
2016-Jul-03 04:33S 24°06' W 046°22'0 0.0
2016-Jul-03 03:33S 24°06' W 046°22'0 0.0
2016-Jul-03 02:33S 24°06' W 046°22'0 0.0
2016-Jul-03 01:33S 24°06' W 046°22'0 0.0
2016-Jul-03 00:33S 24°06' W 046°22'0 0.0
2016-Jul-02 23:30S 24°06' W 046°22'0 0.0
2016-Jul-02 22:27S 24°06' W 046°22'0 0.0
2016-Jul-02 21:33S 24°06' W 046°22'0 0.0
2016-Jul-02 20:33S 24°06' W 046°22'0 0.0
2016-Jul-02 19:27S 24°06' W 046°22'0 0.0
2016-Jul-02 18:33S 24°06' W 046°22'0 0.0
2016-Jul-02 17:30S 24°06' W 046°22'0 0.0
2016-Jul-02 16:30S 24°06' W 046°22'0 0.0
2016-Jul-02 15:33S 24°06' W 046°22'0 0.0
2016-Jul-02 14:27S 24°06' W 046°22'0 0.0
2016-Jul-02 13:33S 24°06' W 046°22'0 0.0
2016-Jul-02 12:27S 24°06' W 046°22'0 0.0
2016-Jul-02 11:33S 24°06' W 046°22'0 0.0
2016-Jul-02 10:33S 24°06' W 046°22'0 0.0
2016-Jul-02 09:33S 24°06' W 046°22'0 0.0
2016-Jul-02 08:27S 24°06' W 046°22'0 0.0
2016-Jul-02 07:33S 24°06' W 046°22'0 0.0
2016-Jul-02 06:33S 24°06' W 046°22'0 0.0
2016-Jul-02 04:30S 24°06' W 046°22'0 0.0
2016-Jul-02 03:33S 24°06' W 046°22'0 0.0
2016-Jul-02 02:33S 24°06' W 046°22'0 0.0
2016-Jul-02 01:33S 24°06' W 046°22'0 0.1
2016-Jul-02 00:33S 24°06' W 046°22'0 0.0
2016-Jul-01 23:33S 24°06' W 046°22'0 0.0
2016-Jul-01 22:18S 24°06' W 046°22'0 0.0
2016-Jul-01 21:33S 24°06' W 046°22'0 0.0
2016-Jul-01 20:33S 24°06' W 046°22'0 0.0
2016-Jul-01 19:33S 24°06' W 046°22'0 0.0
2016-Jul-01 18:33S 24°06' W 046°22'0 0.0
2016-Jul-01 17:30S 24°06' W 046°22'0 0.0
2016-Jul-01 16:33S 24°06' W 046°22'0 0.0
2016-Jul-01 15:33S 24°06' W 046°22'0 0.0
2016-Jul-01 14:27S 24°06' W 046°22'0 0.0
2016-Jul-01 13:33S 24°06' W 046°22'0 0.0
2016-Jul-01 12:33S 24°06' W 046°22'0 0.0
2016-Jul-01 11:27S 24°06' W 046°22'0 0.0
2016-Jul-01 10:33S 24°06' W 046°22'0 0.0
2016-Jul-01 09:33S 24°06' W 046°22'0 0.0
2016-Jul-01 08:30S 24°06' W 046°22'0 0.0
2016-Jul-01 07:33S 24°06' W 046°22'0 0.0
2016-Jul-01 06:33S 24°06' W 046°22'0 0.0
2016-Jul-01 05:30S 24°06' W 046°22'0 0.0
2016-Jul-01 04:33S 24°06' W 046°22'0 0.0
2016-Jul-01 03:30S 24°06' W 046°22'0 0.0
2016-Jul-01 02:33S 24°06' W 046°22'0 0.0
2016-Jul-01 01:33S 24°06' W 046°22'0 0.0
2016-Jul-01 00:33S 24°06' W 046°22'0 0.0
2016-Jun-30 23:33S 24°06' W 046°22'0 0.0
2016-Jun-30 22:33S 24°06' W 046°22'0 0.0
2016-Jun-30 21:33S 24°06' W 046°22'0 0.0
2016-Jun-30 20:33S 24°06' W 046°22'0 0.0
2016-Jun-30 19:33S 24°06' W 046°22'0 0.0
2016-Jun-30 18:33S 24°06' W 046°22'0 0.0
2016-Jun-30 17:30S 24°06' W 046°22'0 0.0
2016-Jun-30 16:30S 24°06' W 046°22'0 0.0
2016-Jun-30 15:33S 24°06' W 046°22'0 0.0
2016-Jun-30 14:33S 24°06' W 046°22'0 0.0
2016-Jun-30 13:30S 24°06' W 046°22'0 0.0
2016-Jun-30 12:33S 24°06' W 046°22'0 0.0
2016-Jun-30 11:33S 24°06' W 046°22'0 0.0
2016-Jun-30 10:33S 24°06' W 046°22'0 0.0
2016-Jun-30 09:24S 24°06' W 046°22'0 0.1
2016-Jun-30 08:33S 24°06' W 046°22'0 0.0
2016-Jun-30 07:27S 24°06' W 046°22'0 0.0
2016-Jun-30 06:33S 24°06' W 046°22'0 0.0
2016-Jun-30 05:30S 24°06' W 046°22'0 0.0
2016-Jun-30 04:33S 24°06' W 046°22'0 0.0
2016-Jun-30 03:33S 24°06' W 046°22'0 0.0
2016-Jun-30 02:33S 24°06' W 046°22'0 0.0
2016-Jun-30 01:33S 24°06' W 046°22'0 0.0
2016-Jun-30 00:33S 24°06' W 046°22'0 0.0
2016-Jun-29 23:30S 24°06' W 046°22'0 0.0
2016-Jun-29 22:33S 24°06' W 046°22'0 0.0
2016-Jun-29 21:33S 24°06' W 046°22'0 0.0
2016-Jun-29 20:30S 24°06' W 046°22'0 0.0
2016-Jun-29 19:33S 24°06' W 046°22'0 0.0
2016-Jun-29 18:33S 24°06' W 046°22'0 0.0
2016-Jun-29 17:33S 24°06' W 046°22'0 0.0
2016-Jun-29 16:30S 24°06' W 046°22'0 0.0
2016-Jun-29 15:33S 24°06' W 046°22'0 0.0
2016-Jun-29 14:33S 24°06' W 046°22'0 0.0
2016-Jun-29 13:30S 24°06' W 046°22'0 0.0
2016-Jun-29 12:33S 24°06' W 046°22'0 0.0
2016-Jun-29 11:33S 24°06' W 046°22'0 0.0
2016-Jun-29 10:33S 24°06' W 046°22'0 0.0
2016-Jun-29 09:33S 24°06' W 046°22'0 0.1
2016-Jun-29 08:33S 24°06' W 046°22'0 0.0
2016-Jun-29 07:33S 24°06' W 046°22'0 0.0
2016-Jun-29 06:33S 24°06' W 046°22'0 0.0
2016-Jun-29 05:24S 24°06' W 046°22'0 0.0
2016-Jun-29 04:33S 24°06' W 046°22'0 0.0
2016-Jun-29 03:30S 24°06' W 046°22'0 0.0
2016-Jun-29 02:33S 24°06' W 046°22'0 0.0
2016-Jun-29 01:33S 24°06' W 046°22'0 0.0
2016-Jun-29 00:30S 24°06' W 046°22'0 0.0
2016-Jun-28 23:33S 24°06' W 046°22'0 0.0
2016-Jun-28 22:33S 24°06' W 046°22'0 0.0
2016-Jun-28 21:33S 24°06' W 046°22'0 0.0
2016-Jun-28 20:30S 24°06' W 046°22'0 0.0
2016-Jun-28 19:33S 24°06' W 046°22'0 0.0
2016-Jun-28 18:33S 24°06' W 046°22'0 0.0
2016-Jun-28 17:33S 24°06' W 046°22'0 0.0
2016-Jun-28 16:33S 24°06' W 046°22'0 0.0
2016-Jun-28 15:30S 24°06' W 046°22'0 0.0
2016-Jun-28 14:33S 24°06' W 046°22'0 0.0
2016-Jun-28 13:33S 24°06' W 046°22'0 0.0
2016-Jun-28 12:27S 24°06' W 046°22'0 0.0
2016-Jun-28 11:30S 24°06' W 046°22'0 0.0
2016-Jun-28 10:33S 24°06' W 046°22'0 0.0
2016-Jun-28 09:33S 24°06' W 046°22'0 0.0
2016-Jun-28 08:33S 24°06' W 046°22'0 0.0
2016-Jun-28 07:33S 24°06' W 046°22'0 0.0
2016-Jun-28 06:33S 24°06' W 046°22'0 0.0
2016-Jun-28 04:30S 24°06' W 046°22'0 0.0
2016-Jun-28 03:30S 24°06' W 046°22'0 0.0
2016-Jun-28 02:33S 24°06' W 046°22'0 0.0
2016-Jun-28 01:30S 24°06' W 046°22'0 0.0
2016-Jun-28 00:24S 24°06' W 046°22'0 0.0
2016-Jun-27 23:33S 24°06' W 046°22'0 0.0
2016-Jun-27 22:21S 24°06' W 046°22'0 0.0
2016-Jun-27 21:33S 24°06' W 046°22'0 0.0
2016-Jun-27 20:33S 24°06' W 046°22'0 0.0
2016-Jun-27 19:33S 24°06' W 046°22'0 0.0
2016-Jun-27 18:33S 24°06' W 046°22'0 0.0
2016-Jun-27 17:33S 24°06' W 046°22'0 0.0
2016-Jun-27 16:33S 24°06' W 046°22'0 0.0
2016-Jun-27 15:30S 24°06' W 046°22'0 0.0
2016-Jun-27 14:33S 24°06' W 046°22'0 0.0
2016-Jun-27 13:30S 24°06' W 046°22'0 0.0
2016-Jun-27 12:18S 24°06' W 046°22'  

Dump ship's entire track history